Jupiter Spirit — A8ZC2 — position and weather

sailwx.info

Track history (hours):
 
Tides and Currents Weather Stations Pressure Air Temp Water Temp Dewpoint Dewpoint Depression Visibility Wind Speed Wind Dir Waves Ship Positions

Jupiter Spirit

Last reported at 2015-Jan-06 04:31 UTC. Time now 2015-Jan-28 16:19 UTC.
Position N 01°55' E 102°24'.
Warning: this ship's position is 22 days out of date.

Length 183 m; draft 8.8 m.

Type: Cargo ship. MMSI: 636015173.

Date/timePositionNaut miles runAvg speedWind from/ knotsBaromVisibWave heightAir tempDewpointWater temp
2015-Jan-06 04:31N 01°55' E 102°24'1515.4
2015-Jan-06 03:33N 01°48' E 102°37'75 6.6
2015-Jan-05 16:12N 01°17' E 103°45'0 0.0
2015-Jan-05 15:33N 01°17' E 103°45'0 0.0
2015-Jan-05 14:33N 01°17' E 103°45'0 0.0
2015-Jan-05 10:33N 01°17' E 103°45'1 1.4
2015-Jan-05 09:31N 01°16' E 103°46'7 7.5
2015-Jan-05 08:33N 01°13' E 103°53'3 2.6
2015-Jan-05 07:31N 01°16' E 103°54'0 0.1
2015-Jan-05 06:25N 01°16' E 103°54'0 0.0
2015-Jan-05 05:28N 01°16' E 103°54'0 0.0
2015-Jan-05 04:19N 01°16' E 103°54'0 0.0
2015-Jan-05 03:07N 01°16' E 103°54'0 0.0
2015-Jan-05 02:31N 01°16' E 103°54'0 0.0
2015-Jan-05 00:19N 01°16' E 103°54'0 0.0
2015-Jan-04 23:16N 01°16' E 103°54'0 0.0
2015-Jan-04 22:31N 01°16' E 103°54'0 0.0
2015-Jan-04 21:25N 01°16' E 103°54'0 0.0
2015-Jan-04 20:31N 01°16' E 103°54'0 0.0
2015-Jan-04 17:22N 01°16' E 103°54'0 0.0
2015-Jan-04 16:25N 01°16' E 103°54'0 0.0
2015-Jan-04 15:19N 01°16' E 103°54'0 0.0
2015-Jan-04 14:25N 01°16' E 103°54'0 0.0
2015-Jan-04 13:28N 01°16' E 103°54'0 0.1
2015-Jan-04 12:25N 01°16' E 103°54'0 0.1
2015-Jan-04 11:31N 01°16' E 103°54'0 0.0
2015-Jan-04 10:10N 01°16' E 103°54'0 0.0
2015-Jan-04 09:31N 01°16' E 103°54'0 0.1
2015-Jan-04 08:28N 01°16' E 103°54'0 0.1
2015-Jan-04 07:31N 01°16' E 103°54'0 0.0
2015-Jan-04 05:22N 01°16' E 103°54'0 0.0
2015-Jan-04 04:19N 01°16' E 103°54'0 0.1
2015-Jan-04 03:25N 01°16' E 103°54'0 0.0
2015-Jan-04 02:28N 01°16' E 103°54'0 0.0
2015-Jan-03 23:31N 01°16' E 103°54'0 0.0
2015-Jan-03 22:25N 01°16' E 103°54'0 0.0
2015-Jan-03 21:31N 01°16' E 103°54'0 0.0
2015-Jan-03 20:31N 01°16' E 103°54'0 0.0
2015-Jan-03 19:07N 01°16' E 103°54'0 0.0
2015-Jan-03 18:19N 01°16' E 103°54'0 0.0
2015-Jan-03 17:13N 01°16' E 103°54'0 0.0
2015-Jan-03 16:25N 01°16' E 103°54'0 0.0
2015-Jan-03 15:31N 01°16' E 103°54'0 0.0
2015-Jan-03 14:25N 01°16' E 103°54'0 0.0
2015-Jan-03 12:19N 01°16' E 103°54'0 0.1
2015-Jan-03 11:28N 01°16' E 103°54'0 0.1
2015-Jan-03 10:31N 01°16' E 103°54'0 0.1
2015-Jan-03 09:25N 01°16' E 103°54'0 0.0
2015-Jan-03 08:04N 01°16' E 103°54'0 0.1
2015-Jan-03 07:19N 01°16' E 103°54'0 0.0
2015-Jan-03 06:31N 01°16' E 103°54'0 0.1
2015-Jan-03 05:31N 01°16' E 103°54'0 0.1
2015-Jan-03 04:19N 01°16' E 103°54'0 0.1
2015-Jan-03 03:31N 01°16' E 103°54'0 0.0
2015-Jan-03 02:31N 01°16' E 103°54'0 0.0
2015-Jan-03 01:10N 01°16' E 103°54'0 0.0
2015-Jan-03 00:19N 01°16' E 103°54'0 0.0
2015-Jan-02 23:25N 01°16' E 103°54'0 0.0
2015-Jan-02 22:19N 01°16' E 103°54'0 0.0
2015-Jan-02 21:19N 01°16' E 103°54'0 0.0
2015-Jan-02 20:13N 01°16' E 103°54'0 0.0
2015-Jan-02 18:25N 01°16' E 103°54'0 0.0
2015-Jan-02 15:25N 01°16' E 103°54'0 0.0
2015-Jan-02 14:25N 01°16' E 103°54'0 0.0
2015-Jan-02 12:25N 01°16' E 103°54'0 0.0
2015-Jan-02 11:31N 01°16' E 103°54'0 0.0
2015-Jan-02 10:28N 01°16' E 103°54'0 0.0
2015-Jan-02 09:16N 01°16' E 103°54'0 0.0
2015-Jan-02 08:19N 01°16' E 103°54'0 0.0
2015-Jan-02 07:31N 01°16' E 103°54'0 0.1
2015-Jan-02 06:31N 01°16' E 103°54'0 0.0
2015-Jan-02 04:31N 01°16' E 103°54'0 0.0
2015-Jan-02 03:31N 01°16' E 103°54'0 0.0
2015-Jan-02 01:07N 01°16' E 103°54'0 0.0
2015-Jan-02 00:07N 01°16' E 103°54'0 0.0
2015-Jan-01 23:25N 01°16' E 103°54'0 0.0
2015-Jan-01 22:31N 01°16' E 103°54'0 0.0
2015-Jan-01 20:13N 01°16' E 103°54'0 0.0
2015-Jan-01 19:10N 01°16' E 103°54'0 0.0
2015-Jan-01 18:13N 01°16' E 103°54'0 0.0
2015-Jan-01 17:31N 01°16' E 103°54'0 0.0
2015-Jan-01 15:28N 01°16' E 103°54'0 0.0
2015-Jan-01 14:31N 01°16' E 103°54'0 0.0
2015-Jan-01 13:19N 01°16' E 103°54'0 0.0
2015-Jan-01 12:25N 01°16' E 103°54'0 0.0
2015-Jan-01 11:25N 01°16' E 103°54'0 0.0
2015-Jan-01 10:31N 01°16' E 103°54'0 0.1
2015-Jan-01 09:31N 01°16' E 103°54'2 2.2
2015-Jan-01 08:33N 01°13' E 103°54'5 4.8
2015-Jan-01 07:34N 01°10' E 103°50'10 9.9
2015-Jan-01 06:33N 01°04' E 103°42'1010.2
2015-Jan-01 05:32N 01°07' E 103°32'6312.7
2015-Jan-01 00:33N 01°42' E 102°39'1414.0
2014-Dec-31 23:33N 01°48' E 102°27'  
Track history (hours):
 
Tides and Currents Weather Stations Pressure Air Temp Water Temp Dewpoint Dewpoint Depression Visibility Wind Speed Wind Dir Waves Ship Positions

Jupiter Spirit

Last reported at 2015-Jan-06 04:31 UTC. Time now 2015-Jan-28 16:19 UTC.
Position N 01°55' E 102°24'.
Warning: this ship's position is 22 days out of date.

Length 183 m; draft 8.8 m.

Type: Cargo ship. MMSI: 636015173.

Date/timePositionNaut miles runAvg speedWind from/ knotsBaromVisibWave heightAir tempDewpointWater temp
2015-Jan-06 04:31N 01°55' E 102°24'1515.4
2015-Jan-06 03:33N 01°48' E 102°37'75 6.6
2015-Jan-05 16:12N 01°17' E 103°45'0 0.0
2015-Jan-05 15:33N 01°17' E 103°45'0 0.0
2015-Jan-05 14:33N 01°17' E 103°45'0 0.0
2015-Jan-05 10:33N 01°17' E 103°45'1 1.4
2015-Jan-05 09:31N 01°16' E 103°46'7 7.5
2015-Jan-05 08:33N 01°13' E 103°53'3 2.6
2015-Jan-05 07:31N 01°16' E 103°54'0 0.1
2015-Jan-05 06:25N 01°16' E 103°54'0 0.0
2015-Jan-05 05:28N 01°16' E 103°54'0 0.0
2015-Jan-05 04:19N 01°16' E 103°54'0 0.0
2015-Jan-05 03:07N 01°16' E 103°54'0 0.0
2015-Jan-05 02:31N 01°16' E 103°54'0 0.0
2015-Jan-05 00:19N 01°16' E 103°54'0 0.0
2015-Jan-04 23:16N 01°16' E 103°54'0 0.0
2015-Jan-04 22:31N 01°16' E 103°54'0 0.0
2015-Jan-04 21:25N 01°16' E 103°54'0 0.0
2015-Jan-04 20:31N 01°16' E 103°54'0 0.0
2015-Jan-04 17:22N 01°16' E 103°54'0 0.0
2015-Jan-04 16:25N 01°16' E 103°54'0 0.0
2015-Jan-04 15:19N 01°16' E 103°54'0 0.0
2015-Jan-04 14:25N 01°16' E 103°54'0 0.0
2015-Jan-04 13:28N 01°16' E 103°54'0 0.1
2015-Jan-04 12:25N 01°16' E 103°54'0 0.1
2015-Jan-04 11:31N 01°16' E 103°54'0 0.0
2015-Jan-04 10:10N 01°16' E 103°54'0 0.0
2015-Jan-04 09:31N 01°16' E 103°54'0 0.1
2015-Jan-04 08:28N 01°16' E 103°54'0 0.1
2015-Jan-04 07:31N 01°16' E 103°54'0 0.0
2015-Jan-04 05:22N 01°16' E 103°54'0 0.0
2015-Jan-04 04:19N 01°16' E 103°54'0 0.1
2015-Jan-04 03:25N 01°16' E 103°54'0 0.0
2015-Jan-04 02:28N 01°16' E 103°54'0 0.0
2015-Jan-03 23:31N 01°16' E 103°54'0 0.0
2015-Jan-03 22:25N 01°16' E 103°54'0 0.0
2015-Jan-03 21:31N 01°16' E 103°54'0 0.0
2015-Jan-03 20:31N 01°16' E 103°54'0 0.0
2015-Jan-03 19:07N 01°16' E 103°54'0 0.0
2015-Jan-03 18:19N 01°16' E 103°54'0 0.0
2015-Jan-03 17:13N 01°16' E 103°54'0 0.0
2015-Jan-03 16:25N 01°16' E 103°54'0 0.0
2015-Jan-03 15:31N 01°16' E 103°54'0 0.0
2015-Jan-03 14:25N 01°16' E 103°54'0 0.0
2015-Jan-03 12:19N 01°16' E 103°54'0 0.1
2015-Jan-03 11:28N 01°16' E 103°54'0 0.1
2015-Jan-03 10:31N 01°16' E 103°54'0 0.1
2015-Jan-03 09:25N 01°16' E 103°54'0 0.0
2015-Jan-03 08:04N 01°16' E 103°54'0 0.1
2015-Jan-03 07:19N 01°16' E 103°54'0 0.0
2015-Jan-03 06:31N 01°16' E 103°54'0 0.1
2015-Jan-03 05:31N 01°16' E 103°54'0 0.1
2015-Jan-03 04:19N 01°16' E 103°54'0 0.1
2015-Jan-03 03:31N 01°16' E 103°54'0 0.0
2015-Jan-03 02:31N 01°16' E 103°54'0 0.0
2015-Jan-03 01:10N 01°16' E 103°54'0 0.0
2015-Jan-03 00:19N 01°16' E 103°54'0 0.0
2015-Jan-02 23:25N 01°16' E 103°54'0 0.0
2015-Jan-02 22:19N 01°16' E 103°54'0 0.0
2015-Jan-02 21:19N 01°16' E 103°54'0 0.0
2015-Jan-02 20:13N 01°16' E 103°54'0 0.0
2015-Jan-02 18:25N 01°16' E 103°54'0 0.0
2015-Jan-02 15:25N 01°16' E 103°54'0 0.0
2015-Jan-02 14:25N 01°16' E 103°54'0 0.0
2015-Jan-02 12:25N 01°16' E 103°54'0 0.0
2015-Jan-02 11:31N 01°16' E 103°54'0 0.0
2015-Jan-02 10:28N 01°16' E 103°54'0 0.0
2015-Jan-02 09:16N 01°16' E 103°54'0 0.0
2015-Jan-02 08:19N 01°16' E 103°54'0 0.0
2015-Jan-02 07:31N 01°16' E 103°54'0 0.1
2015-Jan-02 06:31N 01°16' E 103°54'0 0.0
2015-Jan-02 04:31N 01°16' E 103°54'0 0.0
2015-Jan-02 03:31N 01°16' E 103°54'0 0.0
2015-Jan-02 01:07N 01°16' E 103°54'0 0.0
2015-Jan-02 00:07N 01°16' E 103°54'0 0.0
2015-Jan-01 23:25N 01°16' E 103°54'0 0.0
2015-Jan-01 22:31N 01°16' E 103°54'0 0.0
2015-Jan-01 20:13N 01°16' E 103°54'0 0.0
2015-Jan-01 19:10N 01°16' E 103°54'0 0.0
2015-Jan-01 18:13N 01°16' E 103°54'0 0.0
2015-Jan-01 17:31N 01°16' E 103°54'0 0.0
2015-Jan-01 15:28N 01°16' E 103°54'0 0.0
2015-Jan-01 14:31N 01°16' E 103°54'0 0.0
2015-Jan-01 13:19N 01°16' E 103°54'0 0.0
2015-Jan-01 12:25N 01°16' E 103°54'0 0.0
2015-Jan-01 11:25N 01°16' E 103°54'0 0.0
2015-Jan-01 10:31N 01°16' E 103°54'0 0.1
2015-Jan-01 09:31N 01°16' E 103°54'2 2.2
2015-Jan-01 08:33N 01°13' E 103°54'5 4.8
2015-Jan-01 07:34N 01°10' E 103°50'10 9.9
2015-Jan-01 06:33N 01°04' E 103°42'1010.2
2015-Jan-01 05:32N 01°07' E 103°32'6312.7
2015-Jan-01 00:33N 01°42' E 102°39'1414.0
2014-Dec-31 23:33N 01°48' E 102°27'  

Dump ship's entire track history